Terminal Aerodrome Forecast
Issued by NWS

Home | Current Version | Previous Version | Text Only | Print | Product List | Glossary On
Versions: 1 2 3 4 5 6 7 8 9 10 11 12 13
000
FTUS45 KVEF 260500
TAFHND
TAF
KHND 260520Z 2606/2706 16009KT P6SM SKC
     FM261600 VRB04KT P6SM FEW250
     FM270300 17007KT P6SM FEW250=

USA.gov is the U.S. government's official web portal to all federal, state and local government web resources and services.